KEVW

Evanston-Uinta County Burns Field Airport

Evanston, Wyoming, USA
METAR KEVW 180853Z AUTO 24010KT 10SM CLR M07/M09 A3016 RMK AO2 SLP245 T10721094 55004 $
Observed Flight Rules
Dec-18 @ 08:53 UTC (8 minutes ago) Visual Flight Rules
Wind Visibility Clouds
240° at 10 knots 10 miles
  • Clear skies
Temperatures Readings
Current -7°C / 19°F
Dewpoint -9°C / 16°F
Humidity 86%
Altimeter 30.16" Hg
Pressure 1024.5 hPa
Elevation 2177
METAR KEVW 180853Z AUTO 24010KT 10SM CLR M07/M09 A3016 RMK AO2 SLP245 T10721094 55004 $
Observed Flight Rules
Dec-18 @ 08:53 UTC
(8 minutes ago)
VFR
Wind Visibility
240° at 10 knots 10 miles
Clouds
  • Clear skies
Temperature Dewpoint
-7°C / 19°F -9°C / 16°F
Humidity Altimeter Pressure
86% 30.16" Hg 1024.5 hPa